sensor_id;sensor_type;location;lat;lon;timestamp;P1;durP1;ratioP1;P2;durP2;ratioP2
74213;SDS011;62576;55.694;37.494;2023-08-20T00:01:09;27.77;;;14.25;;
74213;SDS011;62576;55.694;37.494;2023-08-20T00:03:41;23.27;;;13.77;;
74213;SDS011;62576;55.694;37.494;2023-08-20T00:06:12;23.77;;;12.75;;
74213;SDS011;62576;55.694;37.494;2023-08-20T00:08:43;24.52;;;13.77;;
74213;SDS011;62576;55.694;37.494;2023-08-20T00:11:12;25.58;;;13.27;;
74213;SDS011;62576;55.694;37.494;2023-08-20T00:13:42;23.60;;;13.23;;
74213;SDS011;62576;55.694;37.494;2023-08-20T00:16:12;28.42;;;14.55;;
74213;SDS011;62576;55.694;37.494;2023-08-20T00:18:42;22.10;;;13.07;;
74213;SDS011;62576;55.694;37.494;2023-08-20T00:21:13;25.13;;;13.00;;
74213;SDS011;62576;55.694;37.494;2023-08-20T00:23:45;22.17;;;12.73;;
74213;SDS011;62576;55.694;37.494;2023-08-20T00:26:15;23.30;;;12.90;;
74213;SDS011;62576;55.694;37.494;2023-08-20T00:28:44;23.90;;;13.32;;
74213;SDS011;62576;55.694;37.494;2023-08-20T00:31:14;21.63;;;13.73;;
74213;SDS011;62576;55.694;37.494;2023-08-20T00:33:44;24.50;;;13.18;;
74213;SDS011;62576;55.694;37.494;2023-08-20T00:36:13;23.95;;;13.35;;
74213;SDS011;62576;55.694;37.494;2023-08-20T00:38:44;23.58;;;12.18;;
74213;SDS011;62576;55.694;37.494;2023-08-20T00:41:14;22.38;;;12.75;;
74213;SDS011;62576;55.694;37.494;2023-08-20T00:43:44;22.88;;;13.52;;
74213;SDS011;62576;55.694;37.494;2023-08-20T00:46:13;25.38;;;13.23;;
74213;SDS011;62576;55.694;37.494;2023-08-20T00:48:42;23.08;;;12.85;;
74213;SDS011;62576;55.694;37.494;2023-08-20T00:51:12;22.38;;;12.95;;
74213;SDS011;62576;55.694;37.494;2023-08-20T00:53:42;20.60;;;13.20;;
74213;SDS011;62576;55.694;37.494;2023-08-20T00:56:13;22.58;;;13.05;;
74213;SDS011;62576;55.694;37.494;2023-08-20T00:58:42;20.80;;;13.13;;
74213;SDS011;62576;55.694;37.494;2023-08-20T01:01:12;23.42;;;13.43;;
74213;SDS011;62576;55.694;37.494;2023-08-20T01:03:42;21.30;;;13.05;;
74213;SDS011;62576;55.694;37.494;2023-08-20T01:06:14;26.83;;;12.93;;
74213;SDS011;62576;55.694;37.494;2023-08-20T01:08:50;21.90;;;12.38;;
74213;SDS011;62576;55.694;37.494;2023-08-20T01:11:26;27.42;;;13.13;;
74213;SDS011;62576;55.694;37.494;2023-08-20T01:13:58;21.75;;;13.50;;
74213;SDS011;62576;55.694;37.494;2023-08-20T01:16:29;20.25;;;12.88;;
74213;SDS011;62576;55.694;37.494;2023-08-20T01:18:58;26.95;;;12.88;;
74213;SDS011;62576;55.694;37.494;2023-08-20T01:21:30;23.90;;;13.00;;
74213;SDS011;62576;55.694;37.494;2023-08-20T01:24:05;24.05;;;13.27;;
74213;SDS011;62576;55.694;37.494;2023-08-20T01:26:48;23.45;;;13.52;;
74213;SDS011;62576;55.694;37.494;2023-08-20T01:29:18;25.63;;;13.77;;
74213;SDS011;62576;55.694;37.494;2023-08-20T01:31:48;25.13;;;14.32;;
74213;SDS011;62576;55.694;37.494;2023-08-20T01:34:18;25.23;;;14.60;;
74213;SDS011;62576;55.694;37.494;2023-08-20T01:36:48;25.45;;;14.13;;
74213;SDS011;62576;55.694;37.494;2023-08-20T01:39:18;26.02;;;14.45;;
74213;SDS011;62576;55.694;37.494;2023-08-20T01:41:48;22.98;;;13.77;;
74213;SDS011;62576;55.694;37.494;2023-08-20T01:44:19;23.92;;;14.70;;
74213;SDS011;62576;55.694;37.494;2023-08-20T01:46:49;24.65;;;14.23;;
74213;SDS011;62576;55.694;37.494;2023-08-20T01:49:18;23.75;;;13.82;;
74213;SDS011;62576;55.694;37.494;2023-08-20T01:51:48;22.38;;;13.40;;
74213;SDS011;62576;55.694;37.494;2023-08-20T01:54:18;34.92;;;19.17;;
74213;SDS011;62576;55.694;37.494;2023-08-20T01:56:47;28.15;;;18.83;;
74213;SDS011;62576;55.694;37.494;2023-08-20T01:59:19;28.08;;;17.02;;
74213;SDS011;62576;55.694;37.494;2023-08-20T02:01:49;28.02;;;16.33;;
74213;SDS011;62576;55.694;37.494;2023-08-20T02:04:19;24.98;;;15.45;;
74213;SDS011;62576;55.694;37.494;2023-08-20T02:06:49;28.38;;;15.40;;
74213;SDS011;62576;55.694;37.494;2023-08-20T02:09:18;28.05;;;15.07;;
74213;SDS011;62576;55.694;37.494;2023-08-20T02:11:49;21.85;;;15.30;;
74213;SDS011;62576;55.694;37.494;2023-08-20T02:14:20;26.58;;;16.15;;
74213;SDS011;62576;55.694;37.494;2023-08-20T02:16:50;24.85;;;15.73;;
74213;SDS011;62576;55.694;37.494;2023-08-20T02:19:20;30.27;;;15.75;;
74213;SDS011;62576;55.694;37.494;2023-08-20T02:21:49;33.38;;;15.90;;
74213;SDS011;62576;55.694;37.494;2023-08-20T02:24:18;27.63;;;17.88;;
74213;SDS011;62576;55.694;37.494;2023-08-20T02:26:48;26.30;;;17.20;;
74213;SDS011;62576;55.694;37.494;2023-08-20T02:29:18;26.17;;;17.13;;
74213;SDS011;62576;55.694;37.494;2023-08-20T02:31:49;30.25;;;18.40;;
74213;SDS011;62576;55.694;37.494;2023-08-20T02:34:19;28.75;;;17.95;;
74213;SDS011;62576;55.694;37.494;2023-08-20T02:36:49;27.20;;;18.55;;
74213;SDS011;62576;55.694;37.494;2023-08-20T02:39:20;28.30;;;17.40;;
74213;SDS011;62576;55.694;37.494;2023-08-20T02:41:49;33.05;;;18.10;;
74213;SDS011;62576;55.694;37.494;2023-08-20T02:44:19;29.33;;;18.52;;
74213;SDS011;62576;55.694;37.494;2023-08-20T02:46:53;28.13;;;18.42;;
74213;SDS011;62576;55.694;37.494;2023-08-20T02:49:23;32.72;;;17.60;;
74213;SDS011;62576;55.694;37.494;2023-08-20T02:51:53;28.08;;;17.63;;
74213;SDS011;62576;55.694;37.494;2023-08-20T02:54:22;29.58;;;16.88;;
74213;SDS011;62576;55.694;37.494;2023-08-20T02:56:54;29.23;;;16.15;;
74213;SDS011;62576;55.694;37.494;2023-08-20T02:59:24;28.77;;;17.10;;
74213;SDS011;62576;55.694;37.494;2023-08-20T03:01:55;27.50;;;17.05;;
74213;SDS011;62576;55.694;37.494;2023-08-20T03:04:24;27.92;;;16.50;;
74213;SDS011;62576;55.694;37.494;2023-08-20T03:06:54;27.17;;;16.73;;
74213;SDS011;62576;55.694;37.494;2023-08-20T03:09:24;31.42;;;18.73;;
74213;SDS011;62576;55.694;37.494;2023-08-20T03:11:54;32.75;;;20.85;;
74213;SDS011;62576;55.694;37.494;2023-08-20T03:14:23;32.78;;;18.92;;
74213;SDS011;62576;55.694;37.494;2023-08-20T03:16:54;28.73;;;17.23;;
74213;SDS011;62576;55.694;37.494;2023-08-20T03:19:24;30.05;;;18.05;;
74213;SDS011;62576;55.694;37.494;2023-08-20T03:21:54;32.60;;;19.83;;
74213;SDS011;62576;55.694;37.494;2023-08-20T03:24:24;31.35;;;18.73;;
74213;SDS011;62576;55.694;37.494;2023-08-20T03:26:53;32.17;;;18.90;;
74213;SDS011;62576;55.694;37.494;2023-08-20T03:29:23;32.08;;;18.13;;
74213;SDS011;62576;55.694;37.494;2023-08-20T03:31:52;35.47;;;19.73;;
74213;SDS011;62576;55.694;37.494;2023-08-20T03:34:24;39.88;;;23.17;;
74213;SDS011;62576;55.694;37.494;2023-08-20T03:36:53;41.00;;;22.80;;
74213;SDS011;62576;55.694;37.494;2023-08-20T03:39:23;32.78;;;20.42;;
74213;SDS011;62576;55.694;37.494;2023-08-20T03:41:52;36.50;;;22.58;;
74213;SDS011;62576;55.694;37.494;2023-08-20T03:44:22;37.95;;;23.38;;
74213;SDS011;62576;55.694;37.494;2023-08-20T03:46:52;38.28;;;22.55;;
74213;SDS011;62576;55.694;37.494;2023-08-20T03:49:23;35.58;;;22.17;;
74213;SDS011;62576;55.694;37.494;2023-08-20T03:51:53;37.63;;;20.30;;
74213;SDS011;62576;55.694;37.494;2023-08-20T03:54:23;33.47;;;20.05;;
74213;SDS011;62576;55.694;37.494;2023-08-20T03:56:52;34.60;;;20.88;;
74213;SDS011;62576;55.694;37.494;2023-08-20T03:59:22;34.67;;;20.98;;
74213;SDS011;62576;55.694;37.494;2023-08-20T04:01:52;34.67;;;20.65;;
74213;SDS011;62576;55.694;37.494;2023-08-20T04:04:22;36.17;;;20.70;;
74213;SDS011;62576;55.694;37.494;2023-08-20T04:06:53;32.00;;;18.27;;
74213;SDS011;62576;55.694;37.494;2023-08-20T04:09:23;27.88;;;17.15;;
74213;SDS011;62576;55.694;37.494;2023-08-20T04:11:53;29.77;;;18.63;;
74213;SDS011;62576;55.694;37.494;2023-08-20T04:14:23;29.50;;;17.83;;
74213;SDS011;62576;55.694;37.494;2023-08-20T04:16:52;30.30;;;18.55;;
74213;SDS011;62576;55.694;37.494;2023-08-20T04:19:22;30.52;;;18.80;;
74213;SDS011;62576;55.694;37.494;2023-08-20T04:21:53;33.88;;;18.88;;
74213;SDS011;62576;55.694;37.494;2023-08-20T04:24:22;29.25;;;17.58;;
74213;SDS011;62576;55.694;37.494;2023-08-20T04:26:52;31.55;;;18.35;;
74213;SDS011;62576;55.694;37.494;2023-08-20T04:29:25;26.95;;;16.75;;
74213;SDS011;62576;55.694;37.494;2023-08-20T04:31:55;27.92;;;16.65;;
74213;SDS011;62576;55.694;37.494;2023-08-20T04:34:25;23.40;;;15.68;;
74213;SDS011;62576;55.694;37.494;2023-08-20T04:36:56;30.58;;;15.75;;
74213;SDS011;62576;55.694;37.494;2023-08-20T04:39:25;25.27;;;15.35;;
74213;SDS011;62576;55.694;37.494;2023-08-20T04:41:55;24.15;;;15.52;;
74213;SDS011;62576;55.694;37.494;2023-08-20T04:44:31;23.65;;;14.60;;
74213;SDS011;62576;55.694;37.494;2023-08-20T04:47:00;24.58;;;15.82;;
74213;SDS011;62576;55.694;37.494;2023-08-20T04:49:30;23.45;;;14.82;;
74213;SDS011;62576;55.694;37.494;2023-08-20T04:52:03;22.10;;;14.55;;
74213;SDS011;62576;55.694;37.494;2023-08-20T04:54:36;31.45;;;19.63;;
74213;SDS011;62576;55.694;37.494;2023-08-20T04:57:06;24.75;;;15.20;;
74213;SDS011;62576;55.694;37.494;2023-08-20T04:59:35;25.50;;;15.27;;
74213;SDS011;62576;55.694;37.494;2023-08-20T05:02:05;22.77;;;13.52;;
74213;SDS011;62576;55.694;37.494;2023-08-20T05:04:35;22.38;;;14.43;;
74213;SDS011;62576;55.694;37.494;2023-08-20T05:07:06;24.63;;;14.30;;
74213;SDS011;62576;55.694;37.494;2023-08-20T05:09:35;20.85;;;13.63;;
74213;SDS011;62576;55.694;37.494;2023-08-20T05:12:05;22.15;;;14.13;;
74213;SDS011;62576;55.694;37.494;2023-08-20T05:14:35;20.27;;;13.45;;
74213;SDS011;62576;55.694;37.494;2023-08-20T05:17:04;19.50;;;12.73;;
74213;SDS011;62576;55.694;37.494;2023-08-20T05:19:34;22.80;;;14.30;;
74213;SDS011;62576;55.694;37.494;2023-08-20T05:22:04;23.60;;;14.18;;
74213;SDS011;62576;55.694;37.494;2023-08-20T05:24:35;19.38;;;13.70;;
74213;SDS011;62576;55.694;37.494;2023-08-20T05:27:05;17.88;;;12.93;;
74213;SDS011;62576;55.694;37.494;2023-08-20T05:29:36;19.98;;;12.50;;
74213;SDS011;62576;55.694;37.494;2023-08-20T05:32:06;16.92;;;12.25;;
74213;SDS011;62576;55.694;37.494;2023-08-20T05:34:35;18.58;;;11.73;;
74213;SDS011;62576;55.694;37.494;2023-08-20T05:37:05;19.70;;;12.35;;
74213;SDS011;62576;55.694;37.494;2023-08-20T05:39:40;18.58;;;11.73;;
74213;SDS011;62576;55.694;37.494;2023-08-20T05:42:10;18.23;;;11.93;;
74213;SDS011;62576;55.694;37.494;2023-08-20T05:44:39;19.95;;;11.88;;
74213;SDS011;62576;55.694;37.494;2023-08-20T05:47:10;15.98;;;11.15;;
74213;SDS011;62576;55.694;37.494;2023-08-20T05:49:40;21.23;;;12.95;;
74213;SDS011;62576;55.694;37.494;2023-08-20T05:52:14;21.50;;;12.85;;
74213;SDS011;62576;55.694;37.494;2023-08-20T05:54:50;17.75;;;11.85;;
74213;SDS011;62576;55.694;37.494;2023-08-20T05:57:19;18.58;;;12.55;;
74213;SDS011;62576;55.694;37.494;2023-08-20T05:59:49;22.33;;;12.70;;
74213;SDS011;62576;55.694;37.494;2023-08-20T06:02:19;19.70;;;13.30;;
74213;SDS011;62576;55.694;37.494;2023-08-20T06:04:49;19.90;;;12.40;;
74213;SDS011;62576;55.694;37.494;2023-08-20T06:07:19;18.30;;;11.98;;
74213;SDS011;62576;55.694;37.494;2023-08-20T06:09:51;18.40;;;12.82;;
74213;SDS011;62576;55.694;37.494;2023-08-20T06:12:21;21.48;;;12.57;;
74213;SDS011;62576;55.694;37.494;2023-08-20T06:14:50;18.02;;;12.07;;
74213;SDS011;62576;55.694;37.494;2023-08-20T06:17:21;16.75;;;12.02;;
74213;SDS011;62576;55.694;37.494;2023-08-20T06:19:50;16.83;;;11.65;;
74213;SDS011;62576;55.694;37.494;2023-08-20T06:22:21;17.63;;;11.80;;
74213;SDS011;62576;55.694;37.494;2023-08-20T06:24:52;16.40;;;11.35;;
74213;SDS011;62576;55.694;37.494;2023-08-20T06:27:22;16.60;;;11.82;;
74213;SDS011;62576;55.694;37.494;2023-08-20T06:29:52;16.02;;;11.75;;
74213;SDS011;62576;55.694;37.494;2023-08-20T06:32:22;16.67;;;11.80;;
74213;SDS011;62576;55.694;37.494;2023-08-20T06:34:53;19.45;;;12.05;;
74213;SDS011;62576;55.694;37.494;2023-08-20T06:37:23;19.15;;;11.82;;
74213;SDS011;62576;55.694;37.494;2023-08-20T06:39:54;16.67;;;11.80;;
74213;SDS011;62576;55.694;37.494;2023-08-20T06:42:24;20.70;;;12.37;;
74213;SDS011;62576;55.694;37.494;2023-08-20T06:44:55;18.77;;;11.70;;
74213;SDS011;62576;55.694;37.494;2023-08-20T06:47:25;15.73;;;11.32;;
74213;SDS011;62576;55.694;37.494;2023-08-20T06:49:55;17.90;;;11.30;;
74213;SDS011;62576;55.694;37.494;2023-08-20T06:52:21;17.00;;;11.20;;
74213;SDS011;62576;55.694;37.494;2023-08-20T06:54:51;18.58;;;11.23;;
74213;SDS011;62576;55.694;37.494;2023-08-20T06:57:23;15.40;;;10.82;;
74213;SDS011;62576;55.694;37.494;2023-08-20T06:59:52;17.48;;;10.32;;
74213;SDS011;62576;55.694;37.494;2023-08-20T07:02:23;19.45;;;10.50;;
74213;SDS011;62576;55.694;37.494;2023-08-20T07:04:52;16.70;;;10.48;;
74213;SDS011;62576;55.694;37.494;2023-08-20T07:07:23;16.90;;;11.00;;
74213;SDS011;62576;55.694;37.494;2023-08-20T07:09:53;13.55;;;9.38;;
74213;SDS011;62576;55.694;37.494;2023-08-20T07:12:24;16.92;;;8.85;;
74213;SDS011;62576;55.694;37.494;2023-08-20T07:15:08;13.90;;;8.70;;
74213;SDS011;62576;55.694;37.494;2023-08-20T07:17:38;14.02;;;7.68;;
74213;SDS011;62576;55.694;37.494;2023-08-20T07:20:08;11.82;;;7.70;;
74213;SDS011;62576;55.694;37.494;2023-08-20T07:22:39;15.20;;;8.57;;
74213;SDS011;62576;55.694;37.494;2023-08-20T07:25:08;11.57;;;7.28;;
74213;SDS011;62576;55.694;37.494;2023-08-20T07:27:39;14.00;;;7.18;;
74213;SDS011;62576;55.694;37.494;2023-08-20T07:30:10;14.13;;;7.30;;
74213;SDS011;62576;55.694;37.494;2023-08-20T07:32:40;11.07;;;6.93;;
74213;SDS011;62576;55.694;37.494;2023-08-20T07:35:10;11.68;;;7.10;;
74213;SDS011;62576;55.694;37.494;2023-08-20T07:37:39;10.40;;;7.65;;
74213;SDS011;62576;55.694;37.494;2023-08-20T07:40:10;9.65;;;7.18;;
74213;SDS011;62576;55.694;37.494;2023-08-20T07:42:44;11.25;;;7.60;;
74213;SDS011;62576;55.694;37.494;2023-08-20T07:45:14;14.63;;;9.25;;
74213;SDS011;62576;55.694;37.494;2023-08-20T07:47:43;14.95;;;7.90;;
74213;SDS011;62576;55.694;37.494;2023-08-20T07:50:13;13.38;;;8.13;;
74213;SDS011;62576;55.694;37.494;2023-08-20T07:52:40;11.95;;;8.25;;
74213;SDS011;62576;55.694;37.494;2023-08-20T07:55:10;13.20;;;8.50;;
74213;SDS011;62576;55.694;37.494;2023-08-20T07:57:40;10.75;;;8.00;;
74213;SDS011;62576;55.694;37.494;2023-08-20T08:00:14;10.95;;;7.95;;
74213;SDS011;62576;55.694;37.494;2023-08-20T08:02:43;11.20;;;7.65;;
74213;SDS011;62576;55.694;37.494;2023-08-20T08:05:13;10.77;;;7.45;;
74213;SDS011;62576;55.694;37.494;2023-08-20T08:07:44;14.65;;;7.50;;
74213;SDS011;62576;55.694;37.494;2023-08-20T08:10:15;10.88;;;7.32;;
74213;SDS011;62576;55.694;37.494;2023-08-20T08:12:45;10.75;;;7.38;;
74213;SDS011;62576;55.694;37.494;2023-08-20T08:15:17;10.85;;;7.47;;
74213;SDS011;62576;55.694;37.494;2023-08-20T08:17:53;13.55;;;7.88;;
74213;SDS011;62576;55.694;37.494;2023-08-20T08:20:25;10.45;;;8.13;;
74213;SDS011;62576;55.694;37.494;2023-08-20T08:22:55;10.05;;;6.97;;
74213;SDS011;62576;55.694;37.494;2023-08-20T08:25:25;11.85;;;7.43;;
74213;SDS011;62576;55.694;37.494;2023-08-20T08:27:55;11.18;;;7.75;;
74213;SDS011;62576;55.694;37.494;2023-08-20T08:30:27;11.38;;;7.45;;
74213;SDS011;62576;55.694;37.494;2023-08-20T08:32:58;14.30;;;8.00;;
74213;SDS011;62576;55.694;37.494;2023-08-20T08:35:28;11.55;;;7.38;;
74213;SDS011;62576;55.694;37.494;2023-08-20T08:37:59;10.48;;;7.38;;
74213;SDS011;62576;55.694;37.494;2023-08-20T08:40:30;12.57;;;7.13;;
74213;SDS011;62576;55.694;37.494;2023-08-20T08:42:59;12.93;;;7.10;;
74213;SDS011;62576;55.694;37.494;2023-08-20T08:45:32;11.50;;;6.72;;
74213;SDS011;62576;55.694;37.494;2023-08-20T08:48:05;9.70;;;6.45;;
74213;SDS011;62576;55.694;37.494;2023-08-20T08:50:35;12.38;;;6.00;;
74213;SDS011;62576;55.694;37.494;2023-08-20T08:53:02;7.57;;;5.68;;
74213;SDS011;62576;55.694;37.494;2023-08-20T08:55:32;9.77;;;5.70;;
74213;SDS011;62576;55.694;37.494;2023-08-20T08:58:02;13.43;;;5.80;;
74213;SDS011;62576;55.694;37.494;2023-08-20T09:00:35;7.68;;;5.93;;
74213;SDS011;62576;55.694;37.494;2023-08-20T09:03:05;9.68;;;5.22;;
74213;SDS011;62576;55.694;37.494;2023-08-20T09:05:45;8.63;;;5.72;;
74213;SDS011;62576;55.694;37.494;2023-08-20T09:08:19;13.10;;;6.20;;
74213;SDS011;62576;55.694;37.494;2023-08-20T09:10:50;7.82;;;5.70;;
74213;SDS011;62576;55.694;37.494;2023-08-20T09:13:22;8.95;;;5.60;;
74213;SDS011;62576;55.694;37.494;2023-08-20T09:15:58;8.68;;;5.47;;
74213;SDS011;62576;55.694;37.494;2023-08-20T09:18:28;8.27;;;5.57;;
74213;SDS011;62576;55.694;37.494;2023-08-20T09:20:58;7.30;;;5.10;;
74213;SDS011;62576;55.694;37.494;2023-08-20T09:23:28;9.55;;;5.63;;
74213;SDS011;62576;55.694;37.494;2023-08-20T09:25:59;8.25;;;6.00;;
74213;SDS011;62576;55.694;37.494;2023-08-20T09:28:31;6.72;;;5.28;;
74213;SDS011;62576;55.694;37.494;2023-08-20T09:31:10;6.70;;;5.28;;
74213;SDS011;62576;55.694;37.494;2023-08-20T09:36:29;8.30;;;5.30;;
74213;SDS011;62576;55.694;37.494;2023-08-20T09:39:00;8.10;;;5.05;;
74213;SDS011;62576;55.694;37.494;2023-08-20T09:41:32;6.50;;;5.53;;
74213;SDS011;62576;55.694;37.494;2023-08-20T09:44:03;7.93;;;5.70;;
74213;SDS011;62576;55.694;37.494;2023-08-20T09:46:35;8.55;;;6.05;;
74213;SDS011;62576;55.694;37.494;2023-08-20T09:49:04;8.00;;;5.43;;
74213;SDS011;62576;55.694;37.494;2023-08-20T09:51:38;6.88;;;4.95;;
74213;SDS011;62576;55.694;37.494;2023-08-20T09:54:12;8.02;;;4.90;;
74213;SDS011;62576;55.694;37.494;2023-08-20T09:56:44;7.50;;;5.25;;
74213;SDS011;62576;55.694;37.494;2023-08-20T10:01:48;9.95;;;5.47;;
74213;SDS011;62576;55.694;37.494;2023-08-20T10:04:18;7.65;;;5.70;;
74213;SDS011;62576;55.694;37.494;2023-08-20T10:06:49;8.27;;;5.40;;
74213;SDS011;62576;55.694;37.494;2023-08-20T10:09:20;7.47;;;5.25;;
74213;SDS011;62576;55.694;37.494;2023-08-20T10:11:50;7.43;;;5.30;;
74213;SDS011;62576;55.694;37.494;2023-08-20T10:14:20;7.47;;;5.70;;
74213;SDS011;62576;55.694;37.494;2023-08-20T10:16:52;8.27;;;5.43;;
74213;SDS011;62576;55.694;37.494;2023-08-20T10:21:52;8.10;;;5.40;;
74213;SDS011;62576;55.694;37.494;2023-08-20T10:24:23;6.63;;;5.20;;
74213;SDS011;62576;55.694;37.494;2023-08-20T10:27:08;7.60;;;5.37;;
74213;SDS011;62576;55.694;37.494;2023-08-20T10:29:41;8.73;;;5.47;;
74213;SDS011;62576;55.694;37.494;2023-08-20T10:32:12;8.45;;;5.40;;
74213;SDS011;62576;55.694;37.494;2023-08-20T10:34:43;7.90;;;5.50;;
74213;SDS011;62576;55.694;37.494;2023-08-20T10:40:08;9.70;;;5.72;;
74213;SDS011;62576;55.694;37.494;2023-08-20T10:42:40;8.57;;;6.20;;
74213;SDS011;62576;55.694;37.494;2023-08-20T10:45:10;7.68;;;5.80;;
74213;SDS011;62576;55.694;37.494;2023-08-20T10:47:45;7.93;;;5.68;;
74213;SDS011;62576;55.694;37.494;2023-08-20T10:50:16;7.97;;;5.55;;
74213;SDS011;62576;55.694;37.494;2023-08-20T10:52:48;8.18;;;5.90;;
74213;SDS011;62576;55.694;37.494;2023-08-20T10:55:21;7.45;;;5.85;;
74213;SDS011;62576;55.694;37.494;2023-08-20T10:57:54;8.90;;;6.22;;
74213;SDS011;62576;55.694;37.494;2023-08-20T11:00:25;8.15;;;5.82;;
74213;SDS011;62576;55.694;37.494;2023-08-20T11:03:00;7.63;;;5.82;;
74213;SDS011;62576;55.694;37.494;2023-08-20T11:05:31;8.10;;;5.85;;
74213;SDS011;62576;55.694;37.494;2023-08-20T11:08:00;10.60;;;6.30;;
74213;SDS011;62576;55.694;37.494;2023-08-20T11:10:32;10.52;;;6.40;;
74213;SDS011;62576;55.694;37.494;2023-08-20T11:13:03;7.45;;;5.88;;
74213;SDS011;62576;55.694;37.494;2023-08-20T11:15:33;9.60;;;5.80;;
74213;SDS011;62576;55.694;37.494;2023-08-20T11:18:09;7.65;;;6.20;;
74213;SDS011;62576;55.694;37.494;2023-08-20T11:20:39;7.77;;;5.90;;
74213;SDS011;62576;55.694;37.494;2023-08-20T11:23:08;8.43;;;6.10;;
74213;SDS011;62576;55.694;37.494;2023-08-20T11:25:40;8.95;;;6.10;;
74213;SDS011;62576;55.694;37.494;2023-08-20T11:28:10;8.13;;;6.22;;
74213;SDS011;62576;55.694;37.494;2023-08-20T11:30:40;9.27;;;6.47;;
74213;SDS011;62576;55.694;37.494;2023-08-20T11:33:11;7.57;;;6.10;;
74213;SDS011;62576;55.694;37.494;2023-08-20T11:35:41;9.02;;;6.00;;
74213;SDS011;62576;55.694;37.494;2023-08-20T11:38:12;9.00;;;6.00;;
74213;SDS011;62576;55.694;37.494;2023-08-20T11:40:42;8.70;;;6.32;;
74213;SDS011;62576;55.694;37.494;2023-08-20T11:43:12;9.00;;;6.43;;
74213;SDS011;62576;55.694;37.494;2023-08-20T11:45:46;8.80;;;6.55;;
74213;SDS011;62576;55.694;37.494;2023-08-20T11:48:17;8.73;;;6.60;;
74213;SDS011;62576;55.694;37.494;2023-08-20T11:50:47;13.95;;;6.78;;
74213;SDS011;62576;55.694;37.494;2023-08-20T11:53:14;8.95;;;5.85;;
74213;SDS011;62576;55.694;37.494;2023-08-20T11:55:57;9.07;;;5.22;;
74213;SDS011;62576;55.694;37.494;2023-08-20T11:58:28;6.25;;;3.95;;
74213;SDS011;62576;55.694;37.494;2023-08-20T12:00:58;8.70;;;3.92;;
74213;SDS011;62576;55.694;37.494;2023-08-20T12:03:31;9.15;;;4.25;;
74213;SDS011;62576;55.694;37.494;2023-08-20T12:06:14;9.30;;;4.00;;
74213;SDS011;62576;55.694;37.494;2023-08-20T12:08:44;6.93;;;3.40;;
74213;SDS011;62576;55.694;37.494;2023-08-20T12:11:15;5.30;;;3.70;;
74213;SDS011;62576;55.694;37.494;2023-08-20T12:13:47;6.30;;;3.30;;
74213;SDS011;62576;55.694;37.494;2023-08-20T12:16:17;5.30;;;3.13;;
74213;SDS011;62576;55.694;37.494;2023-08-20T12:18:50;3.97;;;3.00;;
74213;SDS011;62576;55.694;37.494;2023-08-20T12:23:50;4.38;;;3.30;;
74213;SDS011;62576;55.694;37.494;2023-08-20T12:26:20;4.70;;;3.30;;
74213;SDS011;62576;55.694;37.494;2023-08-20T12:28:50;7.68;;;3.65;;
74213;SDS011;62576;55.694;37.494;2023-08-20T12:31:19;6.90;;;3.40;;
74213;SDS011;62576;55.694;37.494;2023-08-20T12:33:51;4.65;;;3.33;;
74213;SDS011;62576;55.694;37.494;2023-08-20T12:38:51;6.97;;;3.75;;
74213;SDS011;62576;55.694;37.494;2023-08-20T12:41:21;6.85;;;3.78;;
74213;SDS011;62576;55.694;37.494;2023-08-20T12:43:51;7.28;;;3.95;;
74213;SDS011;62576;55.694;37.494;2023-08-20T12:46:23;6.72;;;4.20;;
74213;SDS011;62576;55.694;37.494;2023-08-20T12:48:58;6.78;;;4.13;;
74213;SDS011;62576;55.694;37.494;2023-08-20T12:51:28;9.88;;;4.65;;
74213;SDS011;62576;55.694;37.494;2023-08-20T12:53:58;10.30;;;4.57;;
74213;SDS011;62576;55.694;37.494;2023-08-20T12:56:30;6.68;;;4.07;;
74213;SDS011;62576;55.694;37.494;2023-08-20T12:59:00;10.43;;;4.50;;
74213;SDS011;62576;55.694;37.494;2023-08-20T13:01:30;8.38;;;3.92;;
74213;SDS011;62576;55.694;37.494;2023-08-20T13:04:07;5.75;;;3.55;;
74213;SDS011;62576;55.694;37.494;2023-08-20T13:06:37;6.13;;;3.80;;
74213;SDS011;62576;55.694;37.494;2023-08-20T13:09:07;9.98;;;4.38;;
74213;SDS011;62576;55.694;37.494;2023-08-20T13:11:38;6.20;;;3.88;;
74213;SDS011;62576;55.694;37.494;2023-08-20T13:14:08;7.50;;;3.92;;
74213;SDS011;62576;55.694;37.494;2023-08-20T13:16:38;7.25;;;4.00;;
74213;SDS011;62576;55.694;37.494;2023-08-20T13:19:10;8.60;;;3.90;;
74213;SDS011;62576;55.694;37.494;2023-08-20T13:21:39;7.35;;;3.63;;
74213;SDS011;62576;55.694;37.494;2023-08-20T13:24:09;8.80;;;3.85;;
74213;SDS011;62576;55.694;37.494;2023-08-20T13:26:36;6.55;;;3.88;;
74213;SDS011;62576;55.694;37.494;2023-08-20T13:29:06;6.20;;;4.60;;
74213;SDS011;62576;55.694;37.494;2023-08-20T13:31:36;6.43;;;3.90;;
74213;SDS011;62576;55.694;37.494;2023-08-20T13:34:05;7.18;;;4.15;;
74213;SDS011;62576;55.694;37.494;2023-08-20T13:36:36;7.30;;;4.78;;
74213;SDS011;62576;55.694;37.494;2023-08-20T13:39:06;10.30;;;4.30;;
74213;SDS011;62576;55.694;37.494;2023-08-20T13:41:39;8.35;;;4.40;;
74213;SDS011;62576;55.694;37.494;2023-08-20T13:44:09;8.55;;;5.00;;
74213;SDS011;62576;55.694;37.494;2023-08-20T13:46:38;8.00;;;5.13;;
74213;SDS011;62576;55.694;37.494;2023-08-20T13:49:09;8.02;;;5.22;;
74213;SDS011;62576;55.694;37.494;2023-08-20T13:51:40;9.18;;;5.70;;
74213;SDS011;62576;55.694;37.494;2023-08-20T13:54:10;8.50;;;5.53;;
74213;SDS011;62576;55.694;37.494;2023-08-20T13:56:40;9.27;;;5.32;;
74213;SDS011;62576;55.694;37.494;2023-08-20T13:59:10;9.23;;;5.60;;
74213;SDS011;62576;55.694;37.494;2023-08-20T14:01:40;8.30;;;4.93;;
74213;SDS011;62576;55.694;37.494;2023-08-20T14:04:10;8.75;;;5.20;;
74213;SDS011;62576;55.694;37.494;2023-08-20T14:06:41;11.60;;;5.10;;
74213;SDS011;62576;55.694;37.494;2023-08-20T14:09:11;8.85;;;5.45;;
74213;SDS011;62576;55.694;37.494;2023-08-20T14:11:48;10.38;;;5.72;;
74213;SDS011;62576;55.694;37.494;2023-08-20T14:14:26;8.98;;;5.57;;
74213;SDS011;62576;55.694;37.494;2023-08-20T14:16:56;7.88;;;5.40;;
74213;SDS011;62576;55.694;37.494;2023-08-20T14:19:26;11.23;;;5.65;;
74213;SDS011;62576;55.694;37.494;2023-08-20T14:21:57;9.25;;;5.63;;
74213;SDS011;62576;55.694;37.494;2023-08-20T14:24:31;10.13;;;5.70;;
74213;SDS011;62576;55.694;37.494;2023-08-20T14:27:01;8.73;;;5.47;;
74213;SDS011;62576;55.694;37.494;2023-08-20T14:29:32;12.88;;;5.90;;
74213;SDS011;62576;55.694;37.494;2023-08-20T14:32:05;9.55;;;5.55;;
74213;SDS011;62576;55.694;37.494;2023-08-20T14:34:37;8.18;;;5.50;;
74213;SDS011;62576;55.694;37.494;2023-08-20T14:37:09;7.93;;;6.00;;
74213;SDS011;62576;55.694;37.494;2023-08-20T14:39:41;7.70;;;5.47;;
74213;SDS011;62576;55.694;37.494;2023-08-20T14:42:11;7.55;;;5.60;;
74213;SDS011;62576;55.694;37.494;2023-08-20T14:44:41;7.65;;;6.20;;
74213;SDS011;62576;55.694;37.494;2023-08-20T14:47:11;10.38;;;6.18;;
74213;SDS011;62576;55.694;37.494;2023-08-20T14:49:41;8.82;;;6.35;;
74213;SDS011;62576;55.694;37.494;2023-08-20T14:52:15;9.43;;;5.85;;
74213;SDS011;62576;55.694;37.494;2023-08-20T14:54:42;10.05;;;6.88;;
74213;SDS011;62576;55.694;37.494;2023-08-20T14:57:11;10.48;;;6.68;;